Time;durP1;ratioP1;P1;durP2;ratioP2;P2;SDS_P1;SDS_P2;PMS_P1;PMS_P2;Temp;Humidity;BMP_temperature;BMP_pressure;BME280_temperature;BME280_humidity;BME280_pressure;Samples;Min_cycle;Max_cycle;Signal;HPM_P1;HPM_P2
2021/06/22 00:02:09;;;;;;;5.22;2.85;;;;;;;19.09;94.89;92907.78;5071656;28;20552;-90
2021/06/22 00:04:36;;;;;;;4.90;2.90;;;;;;;19.06;95.86;92910.91;5056182;28;20520;-90
2021/06/22 00:07:03;;;;;;;5.50;2.95;;;;;;;18.78;97.55;92881.88;5051914;28;20044;-89
2021/06/22 00:09:29;;;;;;;4.13;3.10;;;;;;;18.99;96.76;92920.81;5051798;28;20052;-89
2021/06/22 00:11:56;;;;;;;4.28;2.70;;;;;;;18.59;97.16;92859.09;5051839;28;20048;-89
2021/06/22 00:14:24;;;;;;;5.13;3.40;;;;;;;18.64;97.65;92877.28;5051795;28;20053;-87
2021/06/22 00:16:51;;;;;;;7.55;3.58;;;;;;;18.93;97.50;92926.03;5051688;28;20531;-89
2021/06/22 00:19:18;;;;;;;4.68;2.53;;;;;;;18.91;97.62;92922.94;5051440;28;20049;-90
2021/06/22 00:21:45;;;;;;;6.65;3.17;;;;;;;18.29;97.52;92832.97;5052055;28;20049;-89
2021/06/22 00:24:11;;;;;;;5.72;3.03;;;;;;;18.88;97.97;92920.09;5051375;28;20052;-89
2021/06/22 00:26:38;;;;;;;4.85;3.25;;;;;;;18.88;98.11;92913.06;5060474;28;20048;-89
2021/06/22 00:29:05;;;;;;;6.63;3.70;;;;;;;18.52;97.55;92863.81;5071430;28;20052;-89
2021/06/22 00:31:33;;;;;;;5.18;2.78;;;;;;;18.52;97.49;92869.03;5065700;28;20507;-88
2021/06/22 00:34:00;;;;;;;5.63;3.15;;;;;;;18.82;97.41;92914.91;5071436;28;20131;-88
2021/06/22 00:36:27;;;;;;;5.18;3.13;;;;;;;18.75;98.36;92911.81;5071221;28;20067;-89
2021/06/22 00:38:54;;;;;;;4.03;2.63;;;;;;;18.32;97.52;92851.69;5071299;28;20052;-89
2021/06/22 00:41:21;;;;;;;7.82;4.13;;;;;;;18.51;97.92;92883.84;5071088;28;20048;-88
2021/06/22 00:43:48;;;;;;;7.18;3.72;;;;;;;18.55;99.45;92887.47;5070854;28;20055;-87
2021/06/22 00:46:15;;;;;;;5.70;3.92;;;;;;;18.37;99.09;92869.88;5070971;28;20048;-89
2021/06/22 00:48:43;;;;;;;5.07;3.38;;;;;;;18.68;100.00;92916.53;5070875;28;20607;-87
2021/06/22 00:51:10;;;;;;;5.55;2.90;;;;;;;18.63;99.93;92912.16;5070785;28;20056;-87
2021/06/22 00:53:37;;;;;;;4.50;3.30;;;;;;;18.29;99.73;92860.78;5071023;28;20063;-87
2021/06/22 00:56:04;;;;;;;4.07;2.72;;;;;;;18.58;99.66;92909.56;5070924;28;20057;-88
2021/06/22 00:58:31;;;;;;;5.47;3.83;;;;;;;18.55;99.62;92908.28;5071113;28;20079;-88
2021/06/22 01:01:01;;;;;;;4.68;2.78;;;;;;;18.58;99.32;92917.38;5070903;28;20056;-87
2021/06/22 01:03:28;;;;;;;5.72;3.13;;;;;;;18.15;99.60;92847.59;5064339;28;20072;-88
2021/06/22 01:05:56;;;;;;;6.93;3.58;;;;;;;18.42;100.00;92895.81;5051096;28;20467;-88
2021/06/22 01:08:23;;;;;;;7.22;3.33;;;;;;;18.53;100.00;92920.00;5050736;28;20060;-88
2021/06/22 01:10:50;;;;;;;5.82;3.47;;;;;;;18.35;100.00;92890.13;5050847;28;20040;-88
2021/06/22 01:13:17;;;;;;;5.22;3.10;;;;;;;18.52;100.00;92915.84;5050817;28;20064;-88
2021/06/22 01:15:44;;;;;;;5.53;3.05;;;;;;;17.92;100.00;92825.53;5050501;28;20045;-88
2021/06/22 01:18:11;;;;;;;5.25;3.20;;;;;;;18.15;100.00;92861.34;5051051;28;20049;-88
2021/06/22 01:20:38;;;;;;;9.75;4.03;;;;;;;17.99;100.00;92844.22;5050921;28;20056;-89
2021/06/22 01:23:08;;;;;;;4.97;2.97;;;;;;;17.94;100.00;92852.81;5050714;28;20568;-89
2021/06/22 01:25:36;;;;;;;7.43;2.95;;;;;;;18.18;100.00;92880.06;5050343;28;20532;-88
2021/06/22 01:28:04;;;;;;;5.40;3.28;;;;;;;18.43;100.00;92915.59;5050555;28;20053;-87
2021/06/22 01:30:32;;;;;;;7.50;3.60;;;;;;;18.15;100.00;92878.78;5053005;28;20068;-89
2021/06/22 01:33:01;;;;;;;5.68;2.42;;;;;;;18.23;100.00;92888.63;5069977;28;20048;-87
2021/06/22 01:35:29;;;;;;;7.32;3.15;;;;;;;18.38;100.00;92907.81;5069549;28;20066;-88
2021/06/22 01:37:57;;;;;;;6.07;2.88;;;;;;;18.30;100.00;92902.09;5069867;28;20045;-88
2021/06/22 01:40:27;;;;;;;5.70;3.35;;;;;;;17.79;100.00;92827.66;5069837;28;20059;-87
2021/06/22 01:42:57;;;;;;;5.63;2.95;;;;;;;17.86;100.00;92848.94;5070056;28;20055;-87
2021/06/22 01:45:25;;;;;;;6.68;3.53;;;;;;;17.95;100.00;92859.56;5069725;28;20487;-89
2021/06/22 01:47:52;;;;;;;10.80;3.17;;;;;;;17.62;100.00;92826.13;5070020;28;20057;-87
2021/06/22 01:50:19;;;;;;;4.15;2.53;;;;;;;18.11;100.00;92891.53;5070063;28;20045;-87
2021/06/22 01:52:48;;;;;;;4.90;2.72;;;;;;;17.64;100.00;92828.47;5069491;28;20040;-88
2021/06/22 01:58:01;;;;;;;8.07;3.33;;;;;;;18.00;100.00;92905.53;5069431;28;20063;-87
2021/06/22 02:00:28;;;;;;;5.78;3.65;;;;;;;17.88;100.00;92885.03;5069317;28;20504;-87
2021/06/22 02:02:55;;;;;;;4.75;3.08;;;;;;;17.86;100.00;92892.31;5069530;28;20049;-88
2021/06/22 02:05:22;;;;;;;8.18;3.45;;;;;;;17.87;100.00;92884.25;5051535;28;20052;-87
2021/06/22 02:07:48;;;;;;;4.93;3.05;;;;;;;17.26;100.00;92800.19;5049774;28;20052;-88
2021/06/22 02:10:15;;;;;;;5.00;3.55;;;;;;;17.58;100.00;92856.25;5049690;28;20057;-87
2021/06/22 02:12:42;;;;;;;6.57;3.53;;;;;;;17.44;100.00;92843.03;5049618;28;20056;-87
2021/06/22 02:15:12;;;;;;;7.40;4.07;;;;;;;17.76;100.00;92906.09;5049481;28;20049;-87
2021/06/22 02:17:39;;;;;;;7.00;4.72;;;;;;;17.31;100.00;92840.97;5049345;28;20067;-88
2021/06/22 02:20:08;;;;;;;6.68;3.97;;;;;;;17.30;100.00;92840.19;5049151;28;20053;-87
2021/06/22 02:22:35;;;;;;;6.22;4.03;;;;;;;17.38;100.00;92844.06;5052108;28;20044;-87
2021/06/22 02:25:04;;;;;;;6.60;3.38;;;;;;;17.69;100.00;92895.22;5069598;28;20052;-87
2021/06/22 02:27:33;;;;;;;7.38;3.50;;;;;;;17.28;100.00;92857.84;5069451;28;20053;-87
2021/06/22 02:30:00;;;;;;;7.72;3.38;;;;;;;17.67;100.00;92918.84;5069463;28;20063;-87
2021/06/22 02:32:28;;;;;;;5.80;4.10;;;;;;;17.66;100.00;92916.50;5068925;28;20044;-86
2021/06/22 02:34:55;;;;;;;6.70;3.15;;;;;;;16.98;100.00;92825.59;5069066;28;21050;-87
2021/06/22 02:37:22;;;;;;;6.43;3.38;;;;;;;17.61;100.00;92923.28;5062018;28;20049;-87
2021/06/22 02:39:49;;;;;;;7.22;3.70;;;;;;;17.34;100.00;92877.56;5057753;28;20041;-87
2021/06/22 02:42:16;;;;;;;8.50;4.07;;;;;;;17.48;100.00;92900.41;5068759;28;20049;-86
2021/06/22 02:44:43;;;;;;;5.28;3.50;;;;;;;17.09;100.00;92849.78;5069422;28;20075;-87
2021/06/22 02:47:10;;;;;;;7.10;4.15;;;;;;;17.45;100.00;92896.50;5069077;28;20090;-86
2021/06/22 02:49:38;;;;;;;4.57;2.85;;;;;;;17.58;100.00;92918.59;5068974;28;20412;-87
2021/06/22 02:52:05;;;;;;;5.20;3.70;;;;;;;17.58;100.00;92913.38;5069076;28;20056;-86
2021/06/22 02:54:37;;;;;;;4.18;2.85;;;;;;;17.55;100.00;92907.94;5068938;28;20135;-87
2021/06/22 02:57:05;;;;;;;12.50;3.97;;;;;;;17.42;100.00;92897.03;5069037;28;20489;-87
2021/06/22 02:59:32;;;;;;;8.25;3.50;;;;;;;17.28;100.00;92891.59;5069151;28;20045;-87
2021/06/22 03:01:59;;;;;;;5.85;3.33;;;;;;;17.11;100.00;92873.66;5068777;28;20106;-87
2021/06/22 03:04:26;;;;;;;8.23;3.28;;;;;;;17.29;100.00;92913.91;5055509;28;20053;-86
2021/06/22 03:06:54;;;;;;;6.40;3.22;;;;;;;16.72;100.00;92835.97;5053703;28;20132;-86
2021/06/22 03:09:21;;;;;;;5.85;3.75;;;;;;;17.05;100.00;92885.84;5053369;28;20060;-87
2021/06/22 03:11:48;;;;;;;4.90;3.50;;;;;;;17.07;100.00;92896.75;5052854;28;20045;-88
2021/06/22 03:14:14;;;;;;;5.85;3.60;;;;;;;16.68;100.00;92837.50;5052905;28;20053;-87
2021/06/22 03:16:41;;;;;;;6.43;4.13;;;;;;;17.06;100.00;92887.41;5052847;28;20049;-88
2021/06/22 03:19:08;;;;;;;9.43;3.60;;;;;;;17.12;100.00;92892.59;5052306;28;20056;-88
2021/06/22 03:21:48;;;;;;;7.03;3.75;;;;;;;17.38;100.00;92947.91;5052567;28;20052;-88
2021/06/22 03:24:18;;;;;;;6.95;4.00;;;;;;;17.39;100.00;92935.72;5052548;28;20091;-87
2021/06/22 03:26:46;;;;;;;5.70;3.60;;;;;;;17.41;100.00;92937.00;5065057;28;20044;-86
2021/06/22 03:29:13;;;;;;;4.10;3.20;;;;;;;17.41;100.00;92942.19;5072423;28;20451;-86
2021/06/22 03:31:40;;;;;;;7.50;4.90;;;;;;;17.23;100.00;92927.91;5072317;28;20076;-87
2021/06/22 03:34:06;;;;;;;7.10;2.90;;;;;;;17.38;100.00;92947.91;5072369;28;20048;-87
2021/06/22 03:36:33;;;;;;;9.15;3.53;;;;;;;16.76;100.00;92855.16;5072668;28;20055;-88
2021/06/22 03:39:07;;;;;;;5.13;3.28;;;;;;;16.89;100.00;92876.47;5073002;28;20048;-89
2021/06/22 03:41:36;;;;;;;9.95;4.47;;;;;;;17.40;100.00;92948.44;5072573;28;20099;-89
2021/06/22 03:44:03;;;;;;;9.20;4.15;;;;;;;17.02;100.00;92893.31;5072290;28;20055;-87
2021/06/22 03:46:30;;;;;;;10.55;3.95;;;;;;;17.37;100.00;92951.56;5072334;28;20071;-87
2021/06/22 03:48:57;;;;;;;7.55;4.50;;;;;;;17.27;100.00;92930.78;5072690;28;20094;-88
2021/06/22 03:51:23;;;;;;;5.50;3.30;;;;;;;17.03;100.00;92898.28;5072317;28;20055;-90
2021/06/22 03:53:50;;;;;;;5.88;3.47;;;;;;;16.92;100.00;92871.53;5072219;28;20040;-90
2021/06/22 03:56:18;;;;;;;11.65;4.47;;;;;;;17.41;100.00;92941.44;5071776;28;20147;-90
2021/06/22 03:58:46;;;;;;;5.68;3.88;;;;;;;17.23;100.00;92920.13;5071734;28;20122;-90
2021/06/22 04:01:12;;;;;;;9.82;4.00;;;;;;;17.46;100.00;92939.59;5071821;28;20045;-90
2021/06/22 04:03:39;;;;;;;7.45;3.58;;;;;;;17.46;100.00;92950.00;5067325;28;20060;-90
2021/06/22 04:06:06;;;;;;;6.68;3.80;;;;;;;16.79;100.00;92846.06;5054623;28;20044;-90
2021/06/22 04:08:35;;;;;;;7.43;3.67;;;;;;;17.39;100.00;92909.75;5051939;28;20056;-92
2021/06/22 04:11:03;;;;;;;7.63;3.78;;;;;;;17.62;100.00;92940.41;5052089;28;20436;-91
2021/06/22 04:13:30;;;;;;;6.38;4.45;;;;;;;17.57;100.00;92924.81;5051560;28;20087;-92
2021/06/22 04:15:58;;;;;;;7.00;4.60;;;;;;;17.44;100.00;92891.56;5051114;28;20049;-91
2021/06/22 04:18:25;;;;;;;5.80;3.95;;;;;;;17.53;100.00;92892.63;5052014;28;20053;-90
2021/06/22 04:20:52;;;;;;;5.25;3.88;;;;;;;17.85;100.00;92942.72;5051801;28;20045;-90
2021/06/22 04:23:19;;;;;;;6.90;4.50;;;;;;;17.45;100.00;92877.56;5051321;28;20052;-91
2021/06/22 04:25:47;;;;;;;6.22;3.80;;;;;;;17.90;100.00;92916.72;5051435;28;20171;-89
2021/06/22 04:28:14;;;;;;;7.80;4.50;;;;;;;18.29;100.00;92967.38;5051356;28;20562;-84
2021/06/22 04:30:41;;;;;;;6.45;4.22;;;;;;;18.23;100.00;92978.84;5055577;28;20059;-85
2021/06/22 04:33:09;;;;;;;7.05;3.78;;;;;;;18.27;100.00;92978.03;5071191;28;20480;-84
2021/06/22 04:35:36;;;;;;;8.30;4.28;;;;;;;18.44;100.00;92971.78;5070625;28;20059;-84
2021/06/22 04:38:05;;;;;;;6.38;4.07;;;;;;;18.68;100.00;92984.97;5071089;28;20044;-85
2021/06/22 04:40:33;;;;;;;8.73;4.25;;;;;;;18.82;100.00;92989.59;5071358;28;20044;-86
2021/06/22 04:43:00;;;;;;;7.13;4.13;;;;;;;19.00;100.00;92997.84;5071068;28;20048;-85
2021/06/22 04:45:27;;;;;;;6.68;3.85;;;;;;;19.14;100.00;93005.88;5071165;28;20048;-85
2021/06/22 04:47:54;;;;;;;6.63;4.85;;;;;;;19.26;100.00;93006.34;5071334;28;20064;-85
2021/06/22 04:50:22;;;;;;;9.30;5.18;;;;;;;18.98;100.00;92971.31;5070917;28;20055;-85
2021/06/22 04:52:49;;;;;;;8.65;5.18;;;;;;;19.29;100.00;93002.41;5070679;28;20048;-85
2021/06/22 04:55:17;;;;;;;10.48;4.97;;;;;;;19.48;100.00;93010.38;5070804;28;20061;-85
2021/06/22 04:57:45;;;;;;;12.18;5.85;;;;;;;19.31;100.00;92992.53;5070879;28;20063;-85
2021/06/22 05:00:14;;;;;;;13.27;6.40;;;;;;;19.48;100.00;93005.16;5071320;28;20101;-87
2021/06/22 05:02:42;;;;;;;12.07;6.70;;;;;;;19.75;100.00;93019.59;5070748;28;20512;-84
2021/06/22 05:05:09;;;;;;;13.07;5.75;;;;;;;19.89;98.98;93025.75;5070796;28;20102;-84
2021/06/22 05:07:37;;;;;;;12.25;5.82;;;;;;;20.04;99.93;93024.09;5070501;28;20044;-84
2021/06/22 05:10:05;;;;;;;7.72;5.18;;;;;;;20.10;99.42;93020.41;5070608;28;20048;-83
2021/06/22 05:12:32;;;;;;;10.07;6.22;;;;;;;20.15;97.87;93012.53;5070663;28;20049;-83
2021/06/22 05:14:59;;;;;;;11.32;5.60;;;;;;;20.27;97.28;93022.59;5070520;28;20055;-83
2021/06/22 05:17:26;;;;;;;10.43;6.53;;;;;;;20.32;96.92;93021.78;5070298;28;20508;-83
2021/06/22 05:19:52;;;;;;;13.32;5.90;;;;;;;20.46;96.06;93031.56;5070723;28;20044;-83
2021/06/22 05:22:19;;;;;;;12.93;5.90;;;;;;;20.70;94.54;93032.34;5070257;28;20045;-87
2021/06/22 05:24:47;;;;;;;12.05;6.18;;;;;;;20.79;92.67;93013.50;5070428;28;20048;-87
2021/06/22 05:27:14;;;;;;;12.00;5.38;;;;;;;20.96;92.44;93026.09;5070331;28;20049;-87
2021/06/22 05:29:42;;;;;;;11.25;5.70;;;;;;;20.95;92.02;93037.63;5069361;28;20052;-86
2021/06/22 05:32:09;;;;;;;11.05;5.85;;;;;;;21.07;91.22;93032.00;5070377;28;20045;-84
2021/06/22 05:34:36;;;;;;;9.05;5.38;;;;;;;21.25;90.88;93025.25;5070370;28;20393;-89
2021/06/22 05:37:04;;;;;;;15.18;6.28;;;;;;;21.45;89.93;93028.66;5070344;28;21310;-88
2021/06/22 05:39:31;;;;;;;11.38;4.90;;;;;;;21.43;86.83;92994.19;5069940;28;20048;-88
2021/06/22 05:41:59;;;;;;;19.38;7.30;;;;;;;21.71;86.80;93002.97;5070144;28;20105;-87
2021/06/22 05:44:25;;;;;;;21.17;7.00;;;;;;;22.07;86.11;93027.03;5069870;28;20044;-87
2021/06/22 05:46:52;;;;;;;15.07;6.70;;;;;;;21.97;85.27;92980.88;5069708;28;20428;-88
2021/06/22 05:49:19;;;;;;;11.75;6.88;;;;;;;22.38;83.97;93008.19;5070021;28;20512;-87
2021/06/22 05:51:46;;;;;;;15.32;6.50;;;;;;;22.73;83.78;93016.47;5069615;28;20048;-87
2021/06/22 05:54:13;;;;;;;10.75;6.13;;;;;;;22.95;81.91;93017.66;5070451;28;20103;-84
2021/06/22 05:56:40;;;;;;;12.77;5.88;;;;;;;23.04;82.23;93004.63;5054287;28;20118;-84
2021/06/22 05:59:08;;;;;;;12.48;5.68;;;;;;;23.40;81.57;93019.66;5047814;28;20053;-83
2021/06/22 06:01:35;;;;;;;11.30;5.30;;;;;;;23.63;80.88;93017.06;5049484;28;20056;-86
2021/06/22 06:04:02;;;;;;;11.27;4.82;;;;;;;23.69;79.61;92989.66;5049859;28;20048;-84
2021/06/22 06:06:28;;;;;;;10.07;4.65;;;;;;;24.00;78.95;92988.19;5049256;28;20103;-84
2021/06/22 06:08:55;;;;;;;9.73;4.90;;;;;;;24.25;78.81;92996.53;5049691;28;20052;-84
2021/06/22 06:11:22;;;;;;;9.93;4.40;;;;;;;24.56;77.79;92995.75;5049570;28;20431;-85
2021/06/22 06:13:49;;;;;;;8.95;4.43;;;;;;;24.31;77.35;92940.22;5049542;28;20095;-85
2021/06/22 06:16:17;;;;;;;10.20;5.10;;;;;;;24.86;76.39;92988.16;5049465;28;20049;-85
2021/06/22 06:18:44;;;;;;;7.00;4.18;;;;;;;25.20;75.89;92980.66;5049346;28;20053;-85
2021/06/22 06:21:11;;;;;;;9.43;4.68;;;;;;;25.51;74.25;92992.91;5049279;28;20051;-85
2021/06/22 06:23:40;;;;;;;6.28;3.55;;;;;;;25.68;73.64;92983.50;5049309;28;20130;-85
2021/06/22 06:26:08;;;;;;;8.50;4.15;;;;;;;25.94;73.09;92982.69;5049078;28;20090;-85
2021/06/22 06:28:40;;;;;;;5.93;3.50;;;;;;;26.30;70.67;93000.00;5049508;28;20044;-84
2021/06/22 06:31:06;;;;;;;8.77;4.20;;;;;;;26.53;70.35;93012.94;5049242;28;20049;-85
2021/06/22 06:33:35;;;;;;;7.68;3.70;;;;;;;26.65;68.88;92993.81;5049099;28;20087;-85
2021/06/22 06:36:01;;;;;;;6.78;3.80;;;;;;;26.87;68.11;93005.19;5049294;28;20044;-85
2021/06/22 06:38:28;;;;;;;8.32;3.67;;;;;;;26.61;67.64;92942.88;5048884;28;20094;-85
2021/06/22 06:40:55;;;;;;;8.75;3.38;;;;;;;27.24;65.99;92999.44;5048771;28;20064;-84
2021/06/22 06:43:22;;;;;;;6.05;3.83;;;;;;;27.37;66.19;92992.38;5049006;28;20045;-85
2021/06/22 06:45:49;;;;;;;8.38;3.75;;;;;;;27.60;65.49;93003.44;5049170;28;20052;-85
2021/06/22 06:48:16;;;;;;;9.45;4.00;;;;;;;27.80;65.05;92993.16;5049037;28;20049;-86
2021/06/22 06:50:44;;;;;;;5.93;3.78;;;;;;;27.88;63.73;92987.84;5048976;28;20049;-85
2021/06/22 06:53:11;;;;;;;5.95;3.05;;;;;;;28.06;62.35;92994.81;5049467;28;20049;-84
2021/06/22 06:55:42;;;;;;;13.88;4.72;;;;;;;28.26;62.01;93012.50;5049376;28;20060;-86
2021/06/22 06:58:10;;;;;;;6.57;3.38;;;;;;;28.40;61.87;93003.50;5048956;28;20053;-85
2021/06/22 07:00:38;;;;;;;9.77;4.30;;;;;;;28.30;61.38;92965.06;5048851;28;20044;-85
2021/06/22 07:03:06;;;;;;;7.78;3.35;;;;;;;28.77;60.99;93006.19;5049249;28;20049;-86
2021/06/22 07:05:34;;;;;;;8.80;3.55;;;;;;;28.94;60.02;93013.16;5049655;28;20128;-85
2021/06/22 07:08:04;;;;;;;7.93;4.18;;;;;;;29.25;58.32;93011.03;5049573;28;20106;-86
2021/06/22 07:10:32;;;;;;;10.10;3.65;;;;;;;29.24;58.60;92982.28;5049902;28;20052;-85
2021/06/22 07:13:03;;;;;;;6.50;3.25;;;;;;;29.33;57.00;92957.25;5049392;28;20045;-85
2021/06/22 07:15:29;;;;;;;7.55;3.55;;;;;;;29.81;57.14;93009.59;5049429;28;20060;-86
2021/06/22 07:17:56;;;;;;;12.10;3.35;;;;;;;29.90;55.14;93016.66;5048799;28;20049;-85
2021/06/22 07:20:23;;;;;;;6.10;3.30;;;;;;;30.11;56.27;93011.19;5048940;28;20471;-85
2021/06/22 07:22:50;;;;;;;8.48;4.80;;;;;;;30.21;54.26;93000.09;5049110;28;20056;-85
2021/06/22 07:25:20;;;;;;;7.68;4.40;;;;;;;30.39;54.93;93013.78;5048629;28;20051;-86
2021/06/22 07:27:47;;;;;;;8.15;3.38;;;;;;;30.60;54.54;93017.31;5048829;28;20053;-85
2021/06/22 07:30:16;;;;;;;12.25;4.18;;;;;;;30.65;53.88;93022.38;5048840;28;20049;-85
2021/06/22 07:32:43;;;;;;;8.95;4.38;;;;;;;30.76;54.09;93001.44;5049957;28;20059;-85
2021/06/22 07:35:11;;;;;;;8.68;3.65;;;;;;;31.02;52.63;93024.00;5066993;28;20135;-84
2021/06/22 07:37:40;;;;;;;7.30;3.85;;;;;;;31.22;51.60;93024.81;5067554;28;20048;-85
2021/06/22 07:40:08;;;;;;;9.77;3.10;;;;;;;31.07;50.98;93029.03;5068407;28;20052;-85
2021/06/22 07:42:37;;;;;;;9.50;3.22;;;;;;;30.99;52.29;93006.91;5068714;28;20462;-85
2021/06/22 07:45:05;;;;;;;8.88;3.42;;;;;;;31.29;52.22;93027.66;5068668;28;20048;-85
2021/06/22 07:47:32;;;;;;;10.57;3.92;;;;;;;31.33;51.55;92995.91;5068347;28;20048;-85
2021/06/22 07:49:59;;;;;;;8.60;4.30;;;;;;;31.72;51.12;93027.81;5068911;28;20102;-86
2021/06/22 07:52:26;;;;;;;9.43;3.65;;;;;;;31.84;51.09;93018.91;5070608;28;20055;-87
2021/06/22 07:54:53;;;;;;;8.27;3.80;;;;;;;31.67;50.55;93020.13;5071936;28;20529;-85
2021/06/22 07:57:20;;;;;;;10.40;3.45;;;;;;;31.64;49.74;93010.19;5072130;28;20098;-86
2021/06/22 07:59:48;;;;;;;5.70;3.15;;;;;;;31.51;51.09;92990.97;5072129;28;20062;-86
2021/06/22 08:02:15;;;;;;;6.13;2.83;;;;;;;31.78;50.10;93003.59;5072126;28;20484;-85
2021/06/22 08:04:42;;;;;;;6.07;3.60;;;;;;;31.98;49.81;93002.53;5071871;28;20044;-87
2021/06/22 08:07:09;;;;;;;9.52;4.03;;;;;;;32.10;49.69;92998.94;5071319;28;20052;-86
2021/06/22 08:09:36;;;;;;;8.20;3.75;;;;;;;32.22;49.48;93007.88;5071942;28;20052;-87
2021/06/22 08:12:03;;;;;;;8.07;3.30;;;;;;;32.38;48.37;93010.44;5071729;28;20063;-86
2021/06/22 08:14:33;;;;;;;10.35;5.25;;;;;;;31.47;47.80;93003.41;5071428;28;20594;-88
2021/06/22 08:17:02;;;;;;;8.30;3.90;;;;;;;31.89;50.26;93017.13;5071343;28;20070;-86
2021/06/22 08:19:29;;;;;;;10.20;3.60;;;;;;;32.09;48.05;93009.91;5071526;28;20567;-87
2021/06/22 08:21:57;;;;;;;7.78;4.03;;;;;;;32.33;47.50;93024.78;5072074;28;20143;-88
2021/06/22 08:24:24;;;;;;;7.78;3.15;;;;;;;32.58;47.95;93021.06;5071917;28;20110;-86
2021/06/22 08:26:50;;;;;;;8.20;3.40;;;;;;;32.60;46.05;93005.50;5071864;28;20488;-86
2021/06/22 08:29:17;;;;;;;7.35;3.90;;;;;;;32.70;47.12;93001.47;5072066;28;20484;-87
2021/06/22 08:31:44;;;;;;;7.90;3.75;;;;;;;32.55;46.14;92960.59;5071891;28;20766;-87
2021/06/22 08:34:12;;;;;;;10.95;4.45;;;;;;;32.76;46.97;93005.41;5071748;28;20075;-86
2021/06/22 08:36:39;;;;;;;5.35;3.25;;;;;;;33.00;46.30;93022.13;5071514;28;20045;-85
2021/06/22 08:39:06;;;;;;;6.38;4.15;;;;;;;33.12;46.54;93021.91;5071254;28;20052;-86
2021/06/22 08:41:34;;;;;;;6.00;3.38;;;;;;;33.35;46.08;93018.44;5071647;28;20053;-86
2021/06/22 08:44:04;;;;;;;8.52;3.60;;;;;;;33.43;44.57;92998.78;5071045;28;20052;-86
2021/06/22 08:46:31;;;;;;;10.90;3.13;;;;;;;33.76;45.35;93017.06;5071558;28;20052;-86
2021/06/22 08:49:00;;;;;;;6.18;2.88;;;;;;;33.80;42.67;93008.00;5071372;28;20056;-86
2021/06/22 08:51:28;;;;;;;7.45;3.88;;;;;;;33.88;44.32;93000.84;5070861;28;20053;-86
2021/06/22 08:53:55;;;;;;;7.97;4.80;;;;;;;34.00;44.36;93005.16;5070706;28;20071;-85
2021/06/22 08:56:25;;;;;;;13.10;4.03;;;;;;;33.92;44.45;92969.69;5070749;28;20047;-86
2021/06/22 08:58:52;;;;;;;6.78;3.33;;;;;;;33.90;40.36;93006.59;5070940;28;20507;-88
2021/06/22 09:01:27;;;;;;;7.18;3.22;;;;;;;33.64;40.99;92978.13;5071074;28;20057;-91
2021/06/22 09:03:54;;;;;;;9.15;3.67;;;;;;;33.62;41.40;93020.31;5070962;28;20449;-87
2021/06/22 09:06:25;;;;;;;16.50;3.88;;;;;;;33.51;40.55;92996.97;5071545;28;20059;-88
2021/06/22 09:08:55;;;;;;;8.88;2.97;;;;;;;33.31;40.80;93025.59;5071185;28;20052;-87
2021/06/22 09:11:23;;;;;;;11.10;4.47;;;;;;;33.19;41.17;93006.03;5071020;28;20510;-88
2021/06/22 09:14:01;;;;;;;10.82;3.50;;;;;;;32.97;41.61;92974.94;5070629;28;20139;-89
2021/06/22 09:16:33;;;;;;;7.75;3.35;;;;;;;32.72;41.66;93012.53;5070397;28;20428;-90
2021/06/22 09:19:02;;;;;;;5.40;3.20;;;;;;;32.62;42.88;93005.94;5070772;28;20109;-88
2021/06/22 09:21:31;;;;;;;10.50;4.35;;;;;;;32.11;43.68;93016.41;5070484;28;20556;-88
2021/06/22 09:23:59;;;;;;;12.07;4.65;;;;;;;31.26;44.32;93020.38;5070627;28;20059;-87
2021/06/22 09:26:33;;;;;;;8.15;4.22;;;;;;;31.17;45.96;93023.22;5070312;28;20417;-91
2021/06/22 09:29:14;;;;;;;11.40;4.32;;;;;;;31.38;45.14;92976.28;5070175;28;20060;-87
2021/06/22 09:31:54;;;;;;;10.02;2.95;;;;;;;31.79;45.35;93005.16;5070254;28;20045;-87
2021/06/22 09:34:28;;;;;;;6.57;4.00;;;;;;;31.43;45.14;92971.47;5070265;28;20341;-89
2021/06/22 09:36:57;;;;;;;11.18;3.70;;;;;;;31.15;44.82;92945.84;5070085;28;20511;-87
2021/06/22 09:39:28;;;;;;;12.38;3.78;;;;;;;32.26;45.33;93019.34;5069863;28;20454;-87
2021/06/22 09:42:12;;;;;;;8.60;3.75;;;;;;;31.89;45.45;92935.59;5070209;28;20055;-92
2021/06/22 09:44:39;;;;;;;8.53;2.70;;;;;;;32.79;44.50;93010.78;5069789;28;20419;-88
2021/06/22 09:47:08;;;;;;;9.40;3.60;;;;;;;32.97;43.97;92969.63;5070197;28;20070;-87
2021/06/22 09:49:37;;;;;;;6.05;2.42;;;;;;;33.15;41.16;92975.97;5069820;28;20048;-88
2021/06/22 09:52:07;;;;;;;8.32;3.38;;;;;;;33.87;41.68;93015.28;5070061;28;20403;-86
2021/06/22 09:54:45;;;;;;;8.60;3.67;;;;;;;34.19;41.41;93004.25;5069811;28;20483;-86
2021/06/22 09:57:14;;;;;;;5.60;3.20;;;;;;;34.40;39.42;93016.25;5069473;28;20055;-86
2021/06/22 09:59:53;;;;;;;6.18;2.30;;;;;;;33.82;39.71;92955.13;5069766;28;20053;-87
2021/06/22 10:02:21;;;;;;;9.15;3.03;;;;;;;33.80;40.41;93007.22;5069830;28;20057;-87
2021/06/22 10:04:53;;;;;;;12.80;3.67;;;;;;;33.23;42.25;93008.00;5069943;28;20061;-87
2021/06/22 10:07:23;;;;;;;6.30;3.55;;;;;;;33.02;42.68;93019.84;5069438;28;20048;-87
2021/06/22 10:09:54;;;;;;;8.85;3.78;;;;;;;32.61;43.01;93020.31;5060622;28;20044;-87
2021/06/22 10:12:23;;;;;;;5.97;2.47;;;;;;;32.93;41.53;92988.94;5048656;28;20413;-86
2021/06/22 10:14:51;;;;;;;7.25;2.55;;;;;;;33.38;41.95;93011.63;5048280;28;20057;-89
2021/06/22 10:17:20;;;;;;;8.77;2.50;;;;;;;33.35;42.58;93010.44;5049601;28;20147;-87
2021/06/22 10:19:49;;;;;;;8.82;3.42;;;;;;;33.80;42.13;93013.31;5049036;28;20472;-86
2021/06/22 10:22:18;;;;;;;8.55;3.42;;;;;;;34.01;39.73;92992.63;5049599;28;20067;-87
2021/06/22 10:24:47;;;;;;;8.15;3.30;;;;;;;33.76;40.61;93012.50;5049585;28;20513;-85
2021/06/22 10:27:18;;;;;;;6.63;3.15;;;;;;;33.84;41.42;93005.38;5049125;28;20056;-85
2021/06/22 10:29:46;;;;;;;8.43;2.75;;;;;;;34.06;42.02;93001.06;5049467;28;20052;-85
2021/06/22 10:32:14;;;;;;;8.15;2.83;;;;;;;34.33;42.09;93008.19;5049598;28;20055;-85
2021/06/22 10:34:46;;;;;;;5.82;2.63;;;;;;;34.59;41.57;92991.31;5049521;28;20056;-85
2021/06/22 10:37:16;;;;;;;6.80;3.20;;;;;;;34.54;40.13;92999.63;5049454;28;20208;-87
2021/06/22 10:39:50;;;;;;;11.65;3.60;;;;;;;34.15;40.81;92986.69;5049149;28;20045;-86
2021/06/22 10:42:19;;;;;;;8.20;2.20;;;;;;;34.32;40.47;93004.75;5049545;28;20041;-87
2021/06/22 10:44:53;;;;;;;7.63;3.17;;;;;;;33.58;41.41;93007.75;5048641;28;20436;-89
2021/06/22 10:47:32;;;;;;;14.05;3.13;;;;;;;32.84;43.36;93001.72;5048557;28;20087;-87
2021/06/22 10:50:24;;;;;;;8.73;2.58;;;;;;;33.29;42.30;93003.91;5049179;28;20067;-88
2021/06/22 10:53:04;;;;;;;8.50;3.13;;;;;;;33.62;43.23;92989.13;5048636;28;20415;-86
2021/06/22 10:55:58;;;;;;;9.95;3.22;;;;;;;33.93;40.48;93000.50;5048614;28;20107;-88
2021/06/22 10:58:26;;;;;;;5.75;1.85;;;;;;;33.89;42.33;92977.63;5042707;28;20053;-87
2021/06/22 11:01:14;;;;;;;11.07;2.50;;;;;;;34.44;41.68;92998.41;5049486;28;20085;-86
2021/06/22 11:03:41;;;;;;;5.60;2.40;;;;;;;34.59;41.34;92996.66;5049042;28;20077;-85
2021/06/22 11:06:23;;;;;;;6.70;2.60;;;;;;;34.65;40.24;92994.41;5048670;28;20052;-84
2021/06/22 11:08:50;;;;;;;5.88;2.40;;;;;;;34.78;40.32;92997.56;5048947;28;20049;-87
2021/06/22 11:11:19;;;;;;;6.38;3.80;;;;;;;34.81;39.80;92980.81;5049069;28;20052;-88
2021/06/22 11:13:59;;;;;;;6.63;2.30;;;;;;;33.68;42.80;92930.97;5048645;28;20068;-89
2021/06/22 11:16:31;;;;;;;6.90;2.38;;;;;;;34.62;40.27;92990.56;5049047;28;20548;-86
2021/06/22 11:19:14;;;;;;;6.97;2.15;;;;;;;34.77;40.48;92975.47;5048905;28;20049;-87
2021/06/22 11:22:19;;;;;;;8.48;2.83;;;;;;;34.31;39.92;92893.94;5048631;28;20049;-87
2021/06/22 11:24:47;;;;;;;7.40;2.10;;;;;;;34.67;40.18;92992.16;4986765;28;20062;-86
2021/06/22 11:27:14;;;;;;;7.93;3.17;;;;;;;34.31;38.51;92971.25;4988646;28;20061;-88
2021/06/22 11:29:54;;;;;;;9.73;3.40;;;;;;;33.66;42.55;92991.84;5021124;28;20059;-86
2021/06/22 11:32:38;;;;;;;4.68;2.22;;;;;;;33.90;41.22;92955.97;5053347;28;20056;-87
2021/06/22 11:35:12;;;;;;;4.50;2.03;;;;;;;34.22;40.03;92992.09;5053396;28;20259;-86
2021/06/22 11:37:40;;;;;;;13.52;3.75;;;;;;;34.35;41.28;92988.03;5054635;28;20079;-86
2021/06/22 11:40:13;;;;;;;6.15;2.63;;;;;;;34.52;41.24;92983.19;5052733;28;20048;-87